createdAt,value
2023-04-18T00:04:26.293Z,33.80
2023-04-18T00:09:28.648Z,33.63
2023-04-18T00:14:30.891Z,33.49
2023-04-18T00:19:34.372Z,33.50
2023-04-18T00:24:36.587Z,34.11
2023-04-18T00:29:40.578Z,34.26
2023-04-18T00:34:42.675Z,34.44
2023-04-18T00:39:44.806Z,34.05
2023-04-18T00:44:47.037Z,34.63
2023-04-18T00:49:49.461Z,34.32
2023-04-18T00:54:52.051Z,35.23
2023-04-18T00:59:55.122Z,34.88
2023-04-18T01:04:58.741Z,34.65
2023-04-18T01:10:02.196Z,34.64
2023-04-18T01:15:06.722Z,35.19
2023-04-18T01:20:11.128Z,35.41
2023-04-18T01:25:15.018Z,35.29
2023-04-18T01:30:17.440Z,35.38
2023-04-18T01:35:19.881Z,35.56
2023-04-18T01:40:22.272Z,35.89
2023-04-18T01:45:25.070Z,35.70
2023-04-18T01:50:27.261Z,36.34
2023-04-18T01:55:29.225Z,32.90
2023-04-18T02:00:31.316Z,35.74
2023-04-18T02:05:33.174Z,33.64
2023-04-18T02:10:35.259Z,35.79
2023-04-18T02:15:37.661Z,36.44
2023-04-18T02:20:40.672Z,36.23
2023-04-18T02:25:42.801Z,36.87
2023-04-18T02:30:45.073Z,36.77
2023-04-18T02:35:47.281Z,36.83
2023-04-18T02:40:51.495Z,36.49
2023-04-18T02:45:53.682Z,37.46
2023-04-18T02:51:03.404Z,36.93
2023-04-18T02:56:08.052Z,37.18
2023-04-18T03:01:39.702Z,37.09
2023-04-18T03:06:48.543Z,37.42
2023-04-18T03:11:51.412Z,37.82
2023-04-18T03:16:58.774Z,37.63
2023-04-18T03:22:06.186Z,37.55
2023-04-18T03:27:11.625Z,36.95
2023-04-18T03:32:14.709Z,36.98
2023-04-18T03:37:17.020Z,37.10
2023-04-18T03:42:24.956Z,36.26
2023-04-18T03:47:26.986Z,34.18
2023-04-18T03:52:32.781Z,36.06
2023-04-18T03:57:40.237Z,35.82
2023-04-18T04:02:46.662Z,35.57
2023-04-18T04:07:54.932Z,35.44
2023-04-18T04:12:58.054Z,34.96
2023-04-18T04:18:00.528Z,35.44
2023-04-18T04:23:03.404Z,35.44
2023-04-18T04:28:08.259Z,34.49
2023-04-18T04:33:25.195Z,34.76
2023-04-18T04:38:31.151Z,35.02
2023-04-18T04:43:34.326Z,34.95
2023-04-18T04:48:36.677Z,34.49
2023-04-18T04:53:39.415Z,34.68
2023-04-18T04:58:42.228Z,34.64
2023-04-18T05:03:52.866Z,34.11
2023-04-18T05:08:56.854Z,34.52
2023-04-18T05:13:59.737Z,33.82
2023-04-18T05:19:01.844Z,33.78
2023-04-18T05:24:04.064Z,33.41
2023-04-18T05:29:06.061Z,31.46
2023-04-18T05:34:08.115Z,33.02
2023-04-18T05:39:10.237Z,32.86
2023-04-18T05:44:12.203Z,31.31
2023-04-18T05:49:14.769Z,32.71
2023-04-18T05:54:17.308Z,32.18
2023-04-18T05:59:20.668Z,31.86
2023-04-18T06:04:22.895Z,31.44
2023-04-18T06:09:25.115Z,31.53
2023-04-18T06:14:28.058Z,31.90
2023-04-18T06:19:30.209Z,31.85
2023-04-18T06:24:32.411Z,31.15
2023-04-18T06:29:36.157Z,28.97
2023-04-18T06:34:40.706Z,26.28
2023-04-18T06:39:42.900Z,24.60
2023-04-18T06:44:45.120Z,24.38
2023-04-18T06:49:47.318Z,24.52
2023-04-18T06:54:49.508Z,25.25
2023-04-18T06:59:51.836Z,25.11
2023-04-18T07:04:54.110Z,24.58
2023-04-18T07:09:56.284Z,24.56
2023-04-18T07:14:58.514Z,24.72
2023-04-18T07:20:00.904Z,25.12
2023-04-18T07:25:03.129Z,24.80
2023-04-18T07:30:06.863Z,24.65
2023-04-18T07:35:10.143Z,24.68
2023-04-18T07:40:12.857Z,24.80
2023-04-18T07:45:15.645Z,24.78
2023-04-18T07:50:17.936Z,24.46
2023-04-18T07:55:20.139Z,23.81
2023-04-18T08:00:22.449Z,23.75
2023-04-18T08:05:24.676Z,22.79
2023-04-18T08:10:27.093Z,22.04
2023-04-18T08:15:29.329Z,21.44
2023-04-18T08:20:31.640Z,19.63
2023-04-18T08:25:33.837Z,19.21
2023-04-18T08:30:36.062Z,18.92
2023-04-18T08:35:38.104Z,20.04
2023-04-18T08:40:40.341Z,20.90
2023-04-18T08:45:44.477Z,21.40
2023-04-18T08:50:47.825Z,22.00
2023-04-18T08:55:57.335Z,22.25
2023-04-18T09:00:59.584Z,22.79
2023-04-18T09:06:09.598Z,23.29
2023-04-18T09:11:29.553Z,23.27
2023-04-18T09:16:47.057Z,23.62
2023-04-18T09:22:00.229Z,24.67
2023-04-18T09:27:04.202Z,24.90
2023-04-18T09:32:06.490Z,25.11
2023-04-18T09:37:13.365Z,25.43
2023-04-18T09:42:15.514Z,25.31
2023-04-18T09:47:17.571Z,25.44
2023-04-18T09:52:20.889Z,25.78
2023-04-18T09:57:27.820Z,26.09
2023-04-18T10:02:38.820Z,26.81
2023-04-18T10:07:44.046Z,26.69
2023-04-18T10:12:48.385Z,26.38
2023-04-18T10:18:05.136Z,25.71
2023-04-18T10:23:32.664Z,25.42
2023-04-18T10:28:55.104Z,25.02
2023-04-18T10:39:25.619Z,25.31
2023-04-18T10:44:28.057Z,25.59
2023-04-18T10:49:33.067Z,25.75
2023-04-18T10:54:42.746Z,25.95
2023-04-18T10:59:51.229Z,26.39
2023-04-18T11:04:55.046Z,26.77
2023-04-18T11:09:57.311Z,27.29
2023-04-18T11:15:01.646Z,27.83
2023-04-18T11:20:11.778Z,28.30
2023-04-18T11:25:14.776Z,28.60
2023-04-18T11:30:17.574Z,28.71
2023-04-18T11:35:19.936Z,28.41
2023-04-18T11:40:22.080Z,28.01
2023-04-18T11:45:24.201Z,27.21
2023-04-18T11:50:26.932Z,26.81
2023-04-18T11:55:29.320Z,26.25
2023-04-18T12:00:39.305Z,25.63
2023-04-18T12:05:42.526Z,25.70
2023-04-18T12:10:52.727Z,25.46
2023-04-18T12:15:55.013Z,25.58
2023-04-18T12:20:58.769Z,25.86
2023-04-18T12:26:05.864Z,25.26
2023-04-18T12:31:08.182Z,24.91
2023-04-18T12:36:10.581Z,24.65
2023-04-18T12:41:13.410Z,24.18
2023-04-18T12:46:15.678Z,23.16
2023-04-18T12:51:17.937Z,22.55
2023-04-18T12:56:21.168Z,23.03
2023-04-18T13:01:23.402Z,23.81
2023-04-18T13:06:26.026Z,24.23
2023-04-18T13:11:29.184Z,24.56
2023-04-18T13:16:31.654Z,24.77
2023-04-18T13:21:34.050Z,24.56
2023-04-18T13:26:37.648Z,24.57
2023-04-18T13:31:39.938Z,24.90
2023-04-18T13:36:42.265Z,25.20
2023-04-18T13:41:45.015Z,25.56
2023-04-18T13:46:47.358Z,25.46
2023-04-18T13:51:57.659Z,25.73
2023-04-18T13:57:04.590Z,26.20
2023-04-18T14:02:10.651Z,26.87
2023-04-18T14:07:13.247Z,27.33
2023-04-18T14:12:15.466Z,27.29
2023-04-18T14:17:17.698Z,27.61
2023-04-18T14:22:19.919Z,27.86
2023-04-18T14:27:22.039Z,27.75
2023-04-18T14:32:24.251Z,27.66
2023-04-18T14:37:26.574Z,27.90
2023-04-18T14:42:28.788Z,28.13
2023-04-18T14:47:34.381Z,28.36
2023-04-18T14:52:36.521Z,28.58
2023-04-18T14:57:39.116Z,29.28
2023-04-18T15:02:42.050Z,29.08
2023-04-18T15:07:45.223Z,29.72
2023-04-18T15:12:47.493Z,30.03
2023-04-18T15:17:49.833Z,29.63
2023-04-18T15:22:52.010Z,29.79
2023-04-18T15:27:54.684Z,29.60
2023-04-18T15:32:57.319Z,30.07
2023-04-18T15:37:59.555Z,29.84
2023-04-18T15:43:01.955Z,30.07
2023-04-18T15:48:04.278Z,30.70
2023-04-18T15:53:06.826Z,31.01
2023-04-18T15:58:09.035Z,31.21
2023-04-18T16:03:11.432Z,31.34
2023-04-18T16:08:13.750Z,31.69
2023-04-18T16:13:16.231Z,31.85
2023-04-18T16:18:18.376Z,32.13
2023-04-18T16:23:20.681Z,32.27
2023-04-18T16:28:22.838Z,32.53
2023-04-18T16:33:26.184Z,32.53
2023-04-18T16:38:28.688Z,32.48
2023-04-18T16:43:31.177Z,32.68
2023-04-18T16:48:33.362Z,32.82
2023-04-18T16:53:36.164Z,33.14
2023-04-18T16:58:38.343Z,33.39
2023-04-18T17:03:40.401Z,30.80
2023-04-18T17:08:44.157Z,33.65
2023-04-18T17:13:46.648Z,33.33
2023-04-18T17:18:48.843Z,33.34
2023-04-18T17:23:51.146Z,33.48
2023-04-18T17:28:53.579Z,33.66
2023-04-18T17:33:56.370Z,33.89
2023-04-18T17:39:08.201Z,33.76
2023-04-18T17:44:10.544Z,33.76
2023-04-18T17:49:13.850Z,34.11
2023-04-18T17:54:16.540Z,33.81
2023-04-18T17:59:18.711Z,34.29
2023-04-18T18:04:24.804Z,34.09
2023-04-18T18:09:28.619Z,34.14
2023-04-18T18:14:30.680Z,31.82
2023-04-18T18:19:35.461Z,33.98
2023-04-18T18:24:37.526Z,34.40
2023-04-18T18:29:39.689Z,34.44
2023-04-18T18:34:41.640Z,32.56
2023-04-18T18:39:43.727Z,34.17
2023-04-18T18:44:46.020Z,34.11
2023-04-18T18:49:48.858Z,34.27
2023-04-18T18:54:51.160Z,33.78
2023-04-18T18:59:55.219Z,34.10
2023-04-18T19:04:58.086Z,33.72
2023-04-18T19:10:01.788Z,33.74
2023-04-18T19:15:08.590Z,34.01
2023-04-18T19:20:11.222Z,33.24
2023-04-18T19:25:13.288Z,33.81
2023-04-18T19:30:15.557Z,31.91
2023-04-18T19:35:17.669Z,33.24
2023-04-18T19:40:19.940Z,33.12
2023-04-18T19:45:22.891Z,33.49
2023-04-18T19:50:25.109Z,33.24
2023-04-18T19:55:27.282Z,33.44
2023-04-18T20:00:29.504Z,33.82
2023-04-18T20:05:31.858Z,33.56
2023-04-18T20:10:34.640Z,33.47
2023-04-18T20:15:36.838Z,32.86
2023-04-18T20:20:39.029Z,33.00
2023-04-18T20:25:41.666Z,32.74
2023-04-18T20:30:44.871Z,33.18
2023-04-18T20:35:47.086Z,32.83
2023-04-18T20:40:52.869Z,31.74
2023-04-18T20:45:57.910Z,32.53
2023-04-18T20:51:00.401Z,32.71
2023-04-18T20:56:05.281Z,32.36
2023-04-18T21:01:07.673Z,32.71
2023-04-18T21:06:09.989Z,32.52
2023-04-18T21:11:12.142Z,32.44
2023-04-18T21:16:14.096Z,30.95
2023-04-18T21:21:16.162Z,32.15
2023-04-18T21:26:18.991Z,32.58
2023-04-18T21:31:21.119Z,32.91
2023-04-18T21:36:24.722Z,33.17
2023-04-18T21:41:27.233Z,33.40
2023-04-18T21:46:29.578Z,32.83
2023-04-18T21:51:32.172Z,32.33
2023-04-18T21:56:34.472Z,32.67
2023-04-18T22:01:38.458Z,32.92
2023-04-18T22:06:41.633Z,32.93
2023-04-18T22:11:43.733Z,32.70
2023-04-18T22:16:46.052Z,32.61
2023-04-18T22:21:48.240Z,32.46
2023-04-18T22:26:50.547Z,32.75
2023-04-18T22:31:52.748Z,32.50
2023-04-18T22:36:54.660Z,31.26
2023-04-18T22:41:56.924Z,31.90
2023-04-18T22:46:59.083Z,31.99
2023-04-18T22:52:01.329Z,30.61
2023-04-18T22:57:03.524Z,32.35
2023-04-18T23:02:05.853Z,32.12
2023-04-18T23:07:09.187Z,32.05
2023-04-18T23:12:11.321Z,32.22
2023-04-18T23:17:13.525Z,32.13
2023-04-18T23:22:15.725Z,32.17
2023-04-18T23:27:18.994Z,32.08
2023-04-18T23:32:21.399Z,31.94
2023-04-18T23:37:23.557Z,32.27
2023-04-18T23:42:25.609Z,30.48
2023-04-18T23:47:28.106Z,31.59
2023-04-18T23:52:30.239Z,31.89
2023-04-18T23:57:32.511Z,32.13
